createdAt,value
2023-05-05T00:01:02.301Z,2.40
2023-05-05T00:03:30.115Z,2.50
2023-05-05T00:05:57.644Z,2.50
2023-05-05T00:08:24.712Z,2.63
2023-05-05T00:10:53.003Z,2.50
2023-05-05T00:13:21.225Z,2.90
2023-05-05T00:15:50.405Z,2.40
2023-05-05T00:18:18.578Z,2.47
2023-05-05T00:20:49.310Z,2.73
2023-05-05T00:23:16.814Z,2.83
2023-05-05T00:25:43.940Z,2.70
2023-05-05T00:28:11.044Z,2.70
2023-05-05T00:30:40.076Z,2.33
2023-05-05T00:33:07.127Z,2.73
2023-05-05T00:35:34.755Z,2.70
2023-05-05T00:38:01.835Z,2.50
2023-05-05T00:40:28.819Z,2.70
2023-05-05T00:42:55.874Z,2.63
2023-05-05T00:45:22.703Z,2.60
2023-05-05T00:47:53.617Z,2.73
2023-05-05T00:50:25.782Z,2.67
2023-05-05T00:52:55.020Z,2.57
2023-05-05T00:55:22.171Z,2.60
2023-05-05T00:57:49.627Z,2.50
2023-05-05T01:00:18.181Z,2.37
2023-05-05T01:02:45.521Z,2.60
2023-05-05T01:05:14.491Z,2.20
2023-05-05T01:08:16.245Z,2.47
2023-05-05T01:10:53.455Z,2.30
2023-05-05T01:13:35.660Z,2.43
2023-05-05T01:16:27.013Z,2.90
2023-05-05T01:19:14.926Z,3.27
2023-05-05T01:21:48.582Z,2.40
2023-05-05T01:24:53.063Z,2.40
2023-05-05T01:27:28.534Z,2.57
2023-05-05T01:30:28.833Z,2.27
2023-05-05T01:33:02.826Z,2.60
2023-05-05T01:35:47.286Z,2.33
2023-05-05T01:38:19.415Z,3.00
2023-05-05T01:40:59.950Z,2.67
2023-05-05T01:43:33.927Z,2.70
2023-05-05T01:46:02.629Z,2.67
2023-05-05T01:48:31.113Z,2.53
2023-05-05T01:51:03.249Z,2.47
2023-05-05T01:53:31.453Z,2.70
2023-05-05T01:55:59.848Z,2.80
2023-05-05T01:58:29.486Z,2.23
2023-05-05T02:00:57.672Z,2.43
2023-05-05T02:03:26.905Z,2.50
2023-05-05T02:05:55.495Z,2.90
2023-05-05T02:08:26.049Z,2.80
2023-05-05T02:10:54.900Z,2.40
2023-05-05T02:13:24.854Z,2.10
2023-05-05T02:15:52.170Z,2.40
2023-05-05T02:18:20.155Z,2.50
2023-05-05T02:20:47.540Z,2.27
2023-05-05T02:23:14.583Z,2.80
2023-05-05T02:25:49.239Z,2.70
2023-05-05T02:28:21.524Z,2.60
2023-05-05T02:31:00.381Z,2.87
2023-05-05T02:33:32.654Z,2.83
2023-05-05T02:36:09.433Z,2.97
2023-05-05T02:38:41.761Z,3.00
2023-05-05T02:41:13.683Z,2.90
2023-05-05T02:43:43.369Z,2.53
2023-05-05T02:46:11.415Z,2.40
2023-05-05T02:48:40.980Z,2.77
2023-05-05T02:51:08.186Z,2.97
2023-05-05T02:53:37.403Z,2.53
2023-05-05T02:56:30.554Z,2.70
2023-05-05T02:59:31.169Z,2.37
2023-05-05T03:02:03.572Z,2.23
2023-05-05T03:04:40.021Z,2.70
2023-05-05T03:07:12.544Z,2.40
2023-05-05T03:09:46.081Z,2.50
2023-05-05T03:12:19.320Z,2.60
2023-05-05T03:14:58.772Z,3.00
2023-05-05T03:17:31.120Z,2.80
2023-05-05T03:20:02.272Z,2.97
2023-05-05T03:22:37.040Z,2.50
2023-05-05T03:25:06.393Z,2.60
2023-05-05T03:27:33.247Z,2.77
2023-05-05T03:30:00.781Z,2.87
2023-05-05T03:32:27.814Z,2.30
2023-05-05T03:34:55.728Z,2.60
2023-05-05T03:37:28.423Z,2.97
2023-05-05T03:39:57.380Z,2.80
2023-05-05T03:42:24.245Z,2.80
2023-05-05T03:44:53.781Z,3.53
2023-05-05T03:47:24.694Z,2.70
2023-05-05T03:49:53.042Z,3.00
2023-05-05T03:52:20.063Z,3.13
2023-05-05T03:54:47.014Z,3.10
2023-05-05T03:57:13.936Z,2.77
2023-05-05T03:59:41.465Z,3.13
2023-05-05T04:02:09.227Z,2.80
2023-05-05T04:04:36.410Z,3.10
2023-05-05T04:07:03.388Z,2.90
2023-05-05T04:09:30.601Z,3.03
2023-05-05T04:11:57.594Z,3.03
2023-05-05T04:14:25.820Z,2.93
2023-05-05T04:16:53.442Z,2.70
2023-05-05T04:19:21.158Z,3.30
2023-05-05T04:21:49.376Z,3.10
2023-05-05T04:24:16.315Z,3.47
2023-05-05T04:26:43.162Z,2.93
2023-05-05T04:29:10.997Z,3.03
2023-05-05T04:31:38.040Z,3.50
2023-05-05T04:34:05.132Z,3.20
2023-05-05T04:36:32.252Z,4.00
2023-05-05T04:38:59.804Z,3.03
2023-05-05T04:41:29.898Z,2.83
2023-05-05T04:43:58.167Z,3.03
2023-05-05T04:46:26.347Z,3.33
2023-05-05T04:48:53.313Z,3.20
2023-05-05T04:51:20.478Z,3.23
2023-05-05T04:53:47.514Z,2.93
2023-05-05T04:56:14.381Z,3.20
2023-05-05T04:58:41.474Z,2.83
2023-05-05T05:01:08.390Z,2.87
2023-05-05T05:03:35.402Z,3.13
2023-05-05T05:06:02.498Z,3.60
2023-05-05T05:08:29.707Z,3.13
2023-05-05T05:10:56.545Z,3.17
2023-05-05T05:13:23.431Z,3.20
2023-05-05T05:15:51.160Z,3.27
2023-05-05T05:18:18.410Z,3.13
2023-05-05T05:20:46.024Z,2.90
2023-05-05T05:23:14.082Z,3.10
2023-05-05T05:25:43.848Z,3.20
2023-05-05T05:28:12.095Z,3.20
2023-05-05T05:30:45.304Z,2.90
2023-05-05T05:33:12.366Z,3.23
2023-05-05T05:35:40.218Z,3.37
2023-05-05T05:38:07.662Z,3.00
2023-05-05T05:40:34.610Z,3.30
2023-05-05T05:43:03.013Z,3.00
2023-05-05T05:45:31.723Z,3.60
2023-05-05T05:47:58.830Z,3.33
2023-05-05T05:50:28.569Z,3.33
2023-05-05T05:52:56.878Z,2.97
2023-05-05T05:55:24.388Z,3.27
2023-05-05T05:57:52.209Z,3.57
2023-05-05T06:00:20.506Z,3.87
2023-05-05T06:02:54.862Z,3.67
2023-05-05T06:05:25.641Z,3.50
2023-05-05T06:07:52.812Z,3.37
2023-05-05T06:12:54.577Z,3.90
2023-05-05T06:15:21.677Z,3.20
2023-05-05T06:17:48.793Z,3.53
2023-05-05T06:20:15.971Z,3.53
2023-05-05T06:22:43.125Z,3.40
2023-05-05T06:25:11.053Z,3.57
2023-05-05T06:27:38.414Z,3.50
2023-05-05T06:30:06.841Z,3.93
2023-05-05T06:32:33.893Z,3.57
2023-05-05T06:35:01.339Z,3.47
2023-05-05T06:37:28.359Z,3.87
2023-05-05T06:39:55.215Z,3.90
2023-05-05T06:42:22.218Z,3.63
2023-05-05T06:44:49.204Z,3.87
2023-05-05T06:47:16.223Z,4.30
2023-05-05T06:49:43.378Z,3.63
2023-05-05T06:52:10.263Z,4.03
2023-05-05T06:54:37.600Z,3.70
2023-05-05T06:57:04.940Z,4.00
2023-05-05T06:59:32.688Z,3.77
2023-05-05T07:01:59.936Z,4.03
2023-05-05T07:04:27.001Z,4.03
2023-05-05T07:06:55.293Z,4.30
2023-05-05T07:09:22.184Z,4.47
2023-05-05T07:11:49.191Z,4.10
2023-05-05T07:14:16.094Z,4.60
2023-05-05T07:16:42.940Z,4.37
2023-05-05T07:19:10.108Z,4.50
2023-05-05T07:21:37.742Z,4.97
2023-05-05T07:24:05.503Z,4.83
2023-05-05T07:26:33.039Z,4.23
2023-05-05T07:29:00.140Z,4.50
2023-05-05T07:31:27.060Z,4.60
2023-05-05T07:33:54.168Z,4.90
2023-05-05T07:36:21.292Z,4.80
2023-05-05T07:38:48.135Z,5.03
2023-05-05T07:41:16.334Z,4.97
2023-05-05T07:43:44.692Z,5.47
2023-05-05T07:46:12.182Z,5.07
2023-05-05T07:48:41.825Z,5.17
2023-05-05T07:51:09.368Z,5.20
2023-05-05T07:53:37.037Z,5.10
2023-05-05T07:56:04.177Z,5.20
2023-05-05T07:58:31.132Z,6.17
2023-05-05T08:00:58.041Z,5.67
2023-05-05T08:03:25.314Z,5.23
2023-05-05T08:05:54.645Z,5.20
2023-05-05T08:08:24.916Z,6.03
2023-05-05T08:10:53.507Z,5.77
2023-05-05T08:13:20.575Z,5.93
2023-05-05T08:15:47.806Z,5.80
2023-05-05T08:18:15.154Z,6.23
2023-05-05T08:20:42.074Z,5.77
2023-05-05T08:23:08.938Z,6.73
2023-05-05T08:25:36.210Z,6.20
2023-05-05T08:28:03.378Z,6.00
2023-05-05T08:30:30.943Z,6.03
2023-05-05T08:32:57.973Z,6.60
2023-05-05T08:35:24.968Z,7.40
2023-05-05T08:37:52.052Z,6.93
2023-05-05T08:40:21.442Z,6.80
2023-05-05T08:42:48.459Z,7.07
2023-05-05T08:45:16.017Z,6.47
2023-05-05T08:47:43.690Z,6.87
2023-05-05T08:50:11.576Z,6.47
2023-05-05T08:52:46.894Z,7.47
2023-05-05T08:55:24.449Z,7.47
2023-05-05T08:57:54.669Z,7.93
2023-05-05T09:00:22.516Z,8.47
2023-05-05T09:02:50.181Z,8.93
2023-05-05T09:05:17.844Z,9.50
2023-05-05T09:07:45.245Z,9.13
2023-05-05T09:10:12.678Z,10.30
2023-05-05T09:12:43.154Z,10.73
2023-05-05T09:15:14.682Z,11.37
2023-05-05T09:17:42.319Z,10.57
2023-05-05T09:20:15.107Z,12.23
2023-05-05T09:22:44.721Z,10.93
2023-05-05T09:25:13.960Z,11.07
2023-05-05T09:27:43.406Z,10.93
2023-05-05T09:30:15.062Z,11.13
2023-05-05T09:32:46.607Z,11.00
2023-05-05T09:35:14.026Z,10.77
2023-05-05T09:37:41.168Z,11.00
2023-05-05T09:40:09.529Z,10.13
2023-05-05T09:42:40.816Z,10.17
2023-05-05T09:45:20.179Z,9.80
2023-05-05T09:47:48.110Z,9.03
2023-05-05T09:50:19.048Z,9.90
2023-05-05T09:52:56.604Z,8.53
2023-05-05T09:55:24.712Z,9.63
2023-05-05T09:57:51.858Z,9.43
2023-05-05T10:00:19.701Z,10.03
2023-05-05T10:02:46.905Z,19.33
2023-05-05T10:05:18.720Z,9.13
2023-05-05T10:07:47.585Z,8.23
2023-05-05T10:10:17.183Z,8.90
2023-05-05T10:12:47.446Z,8.43
2023-05-05T10:15:16.073Z,9.67
2023-05-05T10:18:05.938Z,9.47
2023-05-05T10:20:36.632Z,9.07
2023-05-05T10:23:08.204Z,10.40
2023-05-05T10:25:42.446Z,9.53
2023-05-05T10:28:16.697Z,9.03
2023-05-05T10:30:46.246Z,7.07
2023-05-05T10:33:31.551Z,6.30
2023-05-05T10:36:02.482Z,9.40
2023-05-05T10:38:34.283Z,9.43
2023-05-05T10:41:04.772Z,9.27
2023-05-05T10:43:32.093Z,9.20
2023-05-05T10:46:00.230Z,9.33
2023-05-05T10:48:47.270Z,7.40
2023-05-05T10:51:49.818Z,7.27
2023-05-05T10:54:38.336Z,8.40
2023-05-05T10:57:09.930Z,7.13
2023-05-05T10:59:37.085Z,7.97
2023-05-05T11:02:24.225Z,8.00
2023-05-05T11:05:13.632Z,5.07
2023-05-05T11:07:44.798Z,4.50
2023-05-05T11:10:14.330Z,3.53
2023-05-05T11:13:10.804Z,3.10
2023-05-05T11:15:38.442Z,3.30
2023-05-05T11:18:07.874Z,6.40
2023-05-05T11:20:35.937Z,6.37
2023-05-05T11:23:03.244Z,3.77
2023-05-05T11:25:41.053Z,2.87
2023-05-05T11:28:11.559Z,3.20
2023-05-05T11:30:57.518Z,3.20
2023-05-05T11:33:39.076Z,3.30
2023-05-05T11:36:10.367Z,3.67
2023-05-05T11:39:10.201Z,3.53
2023-05-05T11:41:59.502Z,3.47
2023-05-05T11:44:31.789Z,2.73
2023-05-05T11:47:02.806Z,3.10
2023-05-05T11:49:31.354Z,2.63
2023-05-05T11:52:01.418Z,2.60
2023-05-05T11:54:29.142Z,2.53
2023-05-05T11:57:07.292Z,2.90
2023-05-05T11:59:49.767Z,2.03
2023-05-05T12:02:18.061Z,3.23
2023-05-05T12:04:45.610Z,3.33
2023-05-05T12:07:19.806Z,4.33
2023-05-05T12:09:48.190Z,4.93
2023-05-05T12:12:16.114Z,4.63
2023-05-05T12:14:52.535Z,5.00
2023-05-05T12:17:21.537Z,4.73
2023-05-05T12:19:53.830Z,4.23
2023-05-05T12:22:22.977Z,4.50
2023-05-05T12:25:08.977Z,4.20
2023-05-05T12:27:36.265Z,4.00
2023-05-05T12:30:15.275Z,4.60
2023-05-05T12:32:42.328Z,4.33
2023-05-05T12:35:10.170Z,4.20
2023-05-05T12:37:38.124Z,4.27
2023-05-05T12:40:06.692Z,5.20
2023-05-05T12:42:39.032Z,5.23
2023-05-05T12:45:16.063Z,4.80
2023-05-05T12:47:44.756Z,3.97
2023-05-05T12:50:11.797Z,4.33
2023-05-05T12:52:43.771Z,3.63
2023-05-05T12:55:11.587Z,3.87
2023-05-05T12:57:58.779Z,4.00
2023-05-05T13:00:27.469Z,3.70
2023-05-05T13:02:54.375Z,5.20
2023-05-05T13:05:36.344Z,4.90
2023-05-05T13:08:03.419Z,4.63
2023-05-05T13:10:31.472Z,4.43
2023-05-05T13:12:58.758Z,4.73
2023-05-05T13:15:26.222Z,4.63
2023-05-05T13:18:03.027Z,4.63
2023-05-05T13:20:30.119Z,4.33
2023-05-05T13:22:57.427Z,4.03
2023-05-05T13:25:24.453Z,5.07
2023-05-05T13:27:51.383Z,4.53
2023-05-05T13:30:18.238Z,4.70
2023-05-05T13:32:45.513Z,4.33
2023-05-05T13:35:15.971Z,5.27
2023-05-05T13:37:44.389Z,4.97
2023-05-05T13:40:13.353Z,4.67
2023-05-05T13:42:40.577Z,3.70
2023-05-05T13:45:08.105Z,4.27
2023-05-05T13:47:35.635Z,3.67
2023-05-05T13:50:03.055Z,3.50
2023-05-05T13:52:32.150Z,3.43
2023-05-05T13:55:01.058Z,3.90
2023-05-05T13:57:28.240Z,4.07
2023-05-05T13:59:55.211Z,4.03
2023-05-05T14:02:22.473Z,3.73
2023-05-05T14:04:50.181Z,3.97
2023-05-05T14:07:17.281Z,3.80
2023-05-05T14:09:44.234Z,3.53
2023-05-05T14:12:11.229Z,3.87
2023-05-05T14:14:38.066Z,3.33
2023-05-05T14:17:05.057Z,3.00
2023-05-05T14:19:32.484Z,2.37
2023-05-05T14:21:59.877Z,2.70
2023-05-05T14:24:27.373Z,2.57
2023-05-05T14:26:54.508Z,2.80
2023-05-05T14:29:22.165Z,2.73
2023-05-05T14:31:49.032Z,2.63
2023-05-05T14:34:16.226Z,2.60
2023-05-05T14:36:43.266Z,2.57
2023-05-05T14:39:10.312Z,2.50
2023-05-05T14:41:37.391Z,2.73
2023-05-05T14:44:04.400Z,2.60
2023-05-05T14:46:32.404Z,2.23
2023-05-05T14:49:00.147Z,2.70
2023-05-05T14:51:27.116Z,2.90
2023-05-05T14:53:54.363Z,2.90
2023-05-05T14:56:22.934Z,2.50
2023-05-05T14:58:50.344Z,2.20
2023-05-05T15:01:17.530Z,2.50
2023-05-05T15:03:44.801Z,2.03
2023-05-05T15:06:12.493Z,2.40
2023-05-05T15:08:39.566Z,2.10
2023-05-05T15:11:06.836Z,2.23
2023-05-05T15:13:33.842Z,1.80
2023-05-05T15:16:01.640Z,2.30
2023-05-05T15:18:29.844Z,1.70
2023-05-05T15:20:58.112Z,1.67
2023-05-05T15:23:25.056Z,1.70
2023-05-05T15:25:51.937Z,1.53
2023-05-05T15:28:19.174Z,1.50
2023-05-05T15:30:46.159Z,1.60
2023-05-05T15:33:13.065Z,1.70
2023-05-05T15:35:40.017Z,1.60
2023-05-05T15:38:07.538Z,1.97
2023-05-05T15:40:34.755Z,1.90
2023-05-05T15:43:01.752Z,1.40
2023-05-05T15:45:28.676Z,1.43
2023-05-05T15:47:56.437Z,1.40
2023-05-05T15:50:24.067Z,1.30
2023-05-05T15:52:51.060Z,1.43
2023-05-05T15:55:17.950Z,1.37
2023-05-05T15:57:44.929Z,1.40
2023-05-05T16:00:12.532Z,1.40
2023-05-05T16:02:39.964Z,1.50
2023-05-05T16:05:07.478Z,1.80
2023-05-05T16:07:34.696Z,1.90
2023-05-05T16:10:01.896Z,2.00
2023-05-05T16:12:29.055Z,1.67
2023-05-05T16:14:58.057Z,1.77
2023-05-05T16:17:25.112Z,1.63
2023-05-05T16:19:52.100Z,1.80
2023-05-05T16:22:20.954Z,1.60
2023-05-05T16:24:48.892Z,2.30
2023-05-05T16:27:16.520Z,2.03
2023-05-05T16:29:43.410Z,2.03
2023-05-05T16:32:10.443Z,1.90
2023-05-05T16:34:37.318Z,1.60
2023-05-05T16:37:04.335Z,1.90
2023-05-05T16:39:33.084Z,1.70
2023-05-05T16:41:59.978Z,1.70
2023-05-05T16:44:26.821Z,1.90
2023-05-05T16:46:53.607Z,2.10
2023-05-05T16:49:20.646Z,2.40
2023-05-05T16:51:47.508Z,2.60
2023-05-05T16:54:14.395Z,2.60
2023-05-05T16:56:42.172Z,2.87
2023-05-05T16:59:09.418Z,2.20
2023-05-05T17:01:38.261Z,2.33
2023-05-05T17:04:05.386Z,2.57
2023-05-05T17:06:33.055Z,2.77
2023-05-05T17:09:00.948Z,2.80
2023-05-05T17:11:28.023Z,2.73
2023-05-05T17:13:55.407Z,2.90
2023-05-05T17:16:22.883Z,2.50
2023-05-05T17:18:50.195Z,2.87
2023-05-05T17:21:17.504Z,3.10
2023-05-05T17:23:44.902Z,3.13
2023-05-05T17:26:12.286Z,3.00
2023-05-05T17:28:39.664Z,2.53
2023-05-05T17:31:07.658Z,3.40
2023-05-05T17:33:35.025Z,2.93
2023-05-05T17:36:02.188Z,3.50
2023-05-05T17:38:29.644Z,3.33
2023-05-05T17:40:56.663Z,2.97
2023-05-05T17:43:23.569Z,2.93
2023-05-05T17:45:50.534Z,4.07
2023-05-05T17:48:17.495Z,3.70
2023-05-05T17:50:44.966Z,3.40
2023-05-05T17:53:12.476Z,4.03
2023-05-05T17:55:39.337Z,3.00
2023-05-05T17:58:06.306Z,3.07
2023-05-05T18:00:33.214Z,3.03
2023-05-05T18:03:01.342Z,3.70
2023-05-05T18:05:28.350Z,3.57
2023-05-05T18:07:55.361Z,4.17
2023-05-05T18:10:22.408Z,4.10
2023-05-05T18:12:49.659Z,3.57
2023-05-05T18:15:16.609Z,3.67
2023-05-05T18:17:44.322Z,3.77
2023-05-05T18:20:11.677Z,3.57
2023-05-05T18:22:38.563Z,3.30
2023-05-05T18:25:07.962Z,3.80
2023-05-05T18:27:36.168Z,4.00
2023-05-05T18:30:04.831Z,3.83
2023-05-05T18:32:32.179Z,3.60
2023-05-05T18:34:59.706Z,3.50
2023-05-05T18:37:27.920Z,3.77
2023-05-05T18:39:54.918Z,3.70
2023-05-05T18:42:22.686Z,4.33
2023-05-05T18:44:49.633Z,4.00
2023-05-05T18:47:17.168Z,4.57
2023-05-05T18:49:45.476Z,4.20
2023-05-05T18:52:12.310Z,4.37
2023-05-05T18:54:39.316Z,4.47
2023-05-05T18:57:06.130Z,4.20
2023-05-05T18:59:32.982Z,3.97
2023-05-05T19:02:00.047Z,4.17
2023-05-05T19:04:31.359Z,3.77
2023-05-05T19:06:59.989Z,3.70
2023-05-05T19:09:28.037Z,4.10
2023-05-05T19:11:55.012Z,4.07
2023-05-05T19:14:22.875Z,5.50
2023-05-05T19:16:50.289Z,5.00
2023-05-05T19:19:17.537Z,5.50
2023-05-05T19:21:44.634Z,7.37
2023-05-05T19:24:11.952Z,6.57
2023-05-05T19:26:39.089Z,5.67
2023-05-05T19:29:06.481Z,5.57
2023-05-05T19:31:33.558Z,5.50
2023-05-05T19:34:03.094Z,4.47
2023-05-05T19:36:33.568Z,4.63
2023-05-05T19:39:02.506Z,4.30
2023-05-05T19:41:31.030Z,4.53
2023-05-05T19:43:58.042Z,4.50
2023-05-05T19:46:26.923Z,4.00
2023-05-05T19:48:53.878Z,4.33
2023-05-05T19:51:20.795Z,4.77
2023-05-05T19:53:47.824Z,5.10
2023-05-05T19:56:14.722Z,5.20
2023-05-05T19:59:00.822Z,4.67
2023-05-05T20:01:29.797Z,5.30
2023-05-05T20:03:57.496Z,5.33
2023-05-05T20:06:24.825Z,5.30
2023-05-05T20:08:52.330Z,5.13
2023-05-05T20:11:20.162Z,4.77
2023-05-05T20:13:47.678Z,5.63
2023-05-05T20:16:15.148Z,5.30
2023-05-05T20:18:42.365Z,5.90
2023-05-05T20:21:09.590Z,5.47
2023-05-05T20:23:37.130Z,4.97
2023-05-05T20:26:04.069Z,7.77
2023-05-05T20:28:32.002Z,9.20
2023-05-05T20:31:00.885Z,5.60
2023-05-05T20:33:28.974Z,5.07
2023-05-05T20:35:56.806Z,5.50
2023-05-05T20:38:23.919Z,6.90
2023-05-05T20:40:52.166Z,5.97
2023-05-05T20:43:19.698Z,5.63
2023-05-05T20:45:46.699Z,5.17
2023-05-05T20:48:13.764Z,5.10
2023-05-05T20:50:42.336Z,5.17
2023-05-05T20:53:11.051Z,4.83
2023-05-05T20:55:37.958Z,5.23
2023-05-05T20:58:06.890Z,4.60
2023-05-05T21:00:33.959Z,4.50
2023-05-05T21:03:02.847Z,4.67
2023-05-05T21:05:31.747Z,4.53
2023-05-05T21:08:00.892Z,5.30
2023-05-05T21:10:33.217Z,7.80
2023-05-05T21:13:02.421Z,6.30
2023-05-05T21:15:29.758Z,6.60
2023-05-05T21:17:57.141Z,5.03
2023-05-05T21:20:24.485Z,5.37
2023-05-05T21:22:51.714Z,5.37
2023-05-05T21:25:21.055Z,5.40
2023-05-05T21:27:49.052Z,5.90
2023-05-05T21:30:16.972Z,5.83
2023-05-05T21:32:44.633Z,5.93
2023-05-05T21:35:12.252Z,6.53
2023-05-05T21:37:39.965Z,5.83
2023-05-05T21:40:13.942Z,5.73
2023-05-05T21:42:41.539Z,5.77
2023-05-05T21:45:09.291Z,5.77
2023-05-05T21:47:36.474Z,5.57
2023-05-05T21:50:03.481Z,5.90
2023-05-05T21:52:30.776Z,6.93
2023-05-05T21:54:57.840Z,7.90
2023-05-05T21:57:24.965Z,6.77
2023-05-05T21:59:51.903Z,5.60
2023-05-05T22:02:18.867Z,5.60
2023-05-05T22:04:48.511Z,5.70
2023-05-05T22:07:15.474Z,5.60
2023-05-05T22:09:43.254Z,5.63
2023-05-05T22:12:10.151Z,5.50
2023-05-05T22:14:37.366Z,5.90
2023-05-05T22:17:04.425Z,5.90
2023-05-05T22:19:31.577Z,5.40
2023-05-05T22:21:58.963Z,5.43
2023-05-05T22:24:25.959Z,5.40
2023-05-05T22:26:53.659Z,5.97
2023-05-05T22:29:20.487Z,5.60
2023-05-05T22:31:47.636Z,5.47
2023-05-05T22:34:15.234Z,5.07
2023-05-05T22:36:42.311Z,5.13
2023-05-05T22:39:09.442Z,5.57
2023-05-05T22:41:36.613Z,5.10
2023-05-05T22:44:04.503Z,4.90
2023-05-05T22:46:32.180Z,5.30
2023-05-05T22:48:59.086Z,5.13
2023-05-05T22:51:27.812Z,5.00
2023-05-05T22:53:54.786Z,4.83
2023-05-05T22:56:21.743Z,5.13
2023-05-05T22:58:48.913Z,4.40
2023-05-05T23:01:16.131Z,4.07
2023-05-05T23:03:43.076Z,4.37
2023-05-05T23:06:10.076Z,3.77
2023-05-05T23:08:36.985Z,3.47
2023-05-05T23:11:04.042Z,3.87
2023-05-05T23:13:31.304Z,4.17
2023-05-05T23:15:58.244Z,3.90
2023-05-05T23:18:25.128Z,3.80
2023-05-05T23:20:52.117Z,3.73
2023-05-05T23:23:19.145Z,3.80
2023-05-05T23:25:46.099Z,4.40
2023-05-05T23:28:13.013Z,4.70
2023-05-05T23:30:40.011Z,4.07
2023-05-05T23:33:07.006Z,3.87
2023-05-05T23:35:34.248Z,3.50
2023-05-05T23:38:02.116Z,3.17
2023-05-05T23:40:29.224Z,3.30
2023-05-05T23:42:57.547Z,3.87
2023-05-05T23:45:24.875Z,3.60
2023-05-05T23:47:52.809Z,3.40
2023-05-05T23:50:20.247Z,3.97
2023-05-05T23:52:47.353Z,3.53
2023-05-05T23:55:14.578Z,3.40
2023-05-05T23:57:41.475Z,3.20
